createdAt,value
2022-11-18T00:00:08.465Z,988.84
2022-11-18T00:01:08.431Z,988.85
2022-11-18T00:02:08.448Z,988.80
2022-11-18T00:03:08.378Z,988.85
2022-11-18T00:04:08.353Z,988.81
2022-11-18T00:05:08.328Z,988.89
2022-11-18T00:06:08.309Z,988.86
2022-11-18T00:07:08.360Z,988.90
2022-11-18T00:08:08.248Z,988.90
2022-11-18T00:09:08.222Z,988.93
2022-11-18T00:10:08.196Z,988.97
2022-11-18T00:11:08.169Z,988.98
2022-11-18T00:12:08.144Z,988.96
2022-11-18T00:13:08.121Z,988.97
2022-11-18T00:14:08.090Z,988.98
2022-11-18T00:15:08.062Z,988.98
2022-11-18T00:16:08.046Z,988.99
2022-11-18T00:17:08.008Z,988.94
2022-11-18T00:18:07.982Z,988.92
2022-11-18T00:19:07.959Z,988.98
2022-11-18T00:20:07.930Z,988.98
2022-11-18T00:21:07.905Z,989.00
2022-11-18T00:22:07.877Z,989.01
2022-11-18T00:23:07.870Z,989.04
2022-11-18T00:24:07.824Z,989.06
2022-11-18T00:25:07.798Z,989.01
2022-11-18T00:26:07.774Z,989.06
2022-11-18T00:27:07.747Z,989.04
2022-11-18T00:28:07.720Z,989.04
2022-11-18T00:29:07.694Z,989.06
2022-11-18T00:30:07.666Z,989.04
2022-11-18T00:31:07.641Z,989.08
2022-11-18T00:32:07.612Z,989.09
2022-11-18T00:33:07.588Z,989.10
2022-11-18T00:34:07.563Z,989.13
2022-11-18T00:35:07.538Z,989.14
2022-11-18T00:36:07.506Z,989.14
2022-11-18T00:37:07.480Z,989.14
2022-11-18T00:38:07.455Z,989.10
2022-11-18T00:39:07.452Z,989.12
2022-11-18T00:40:07.401Z,989.15
2022-11-18T00:41:07.376Z,989.18
2022-11-18T00:42:07.350Z,989.17
2022-11-18T00:43:07.323Z,989.17
2022-11-18T00:44:09.653Z,989.15
2022-11-18T00:45:07.269Z,989.16
2022-11-18T00:46:07.244Z,989.20
2022-11-18T00:47:07.218Z,989.20
2022-11-18T00:48:07.188Z,989.24
2022-11-18T00:49:07.165Z,989.26
2022-11-18T00:50:07.178Z,989.24
2022-11-18T00:51:07.113Z,989.19
2022-11-18T00:52:07.081Z,989.24
2022-11-18T00:53:07.057Z,989.22
2022-11-18T00:54:07.034Z,989.22
2022-11-18T00:55:07.036Z,989.22
2022-11-18T00:56:06.976Z,989.22
2022-11-18T00:57:06.955Z,989.21
2022-11-18T00:58:06.925Z,989.20
2022-11-18T00:59:06.899Z,989.20
2022-11-18T01:00:06.871Z,989.22
2022-11-18T01:01:06.910Z,989.19
2022-11-18T01:02:06.820Z,989.23
2022-11-18T01:03:06.794Z,989.22
2022-11-18T01:04:06.765Z,989.24
2022-11-18T01:05:06.741Z,989.21
2022-11-18T01:06:06.714Z,989.20
2022-11-18T01:07:06.745Z,989.24
2022-11-18T01:08:06.661Z,989.25
2022-11-18T01:09:06.632Z,989.24
2022-11-18T01:10:06.607Z,989.30
2022-11-18T01:11:06.601Z,989.27
2022-11-18T01:12:06.554Z,989.28
2022-11-18T01:13:06.584Z,989.32
2022-11-18T01:14:06.501Z,989.33
2022-11-18T01:15:06.477Z,989.37
2022-11-18T01:16:06.445Z,989.34
2022-11-18T01:17:06.424Z,989.36
2022-11-18T01:18:06.394Z,989.37
2022-11-18T01:19:06.369Z,989.39
2022-11-18T01:20:06.342Z,989.39
2022-11-18T01:21:06.323Z,989.43
2022-11-18T01:22:06.287Z,989.47
2022-11-18T01:23:06.265Z,989.51
2022-11-18T01:24:06.232Z,989.51
2022-11-18T01:25:06.210Z,989.50
2022-11-18T01:26:06.181Z,989.49
2022-11-18T01:27:06.173Z,989.52
2022-11-18T01:28:06.145Z,989.50
2022-11-18T01:29:06.101Z,989.52
2022-11-18T01:30:06.075Z,989.54
2022-11-18T01:31:06.048Z,989.59
2022-11-18T01:33:06.001Z,989.59
2022-11-18T01:34:05.969Z,989.59
2022-11-18T01:35:05.949Z,989.61
2022-11-18T01:36:05.915Z,989.63
2022-11-18T01:37:05.890Z,989.64
2022-11-18T01:38:05.862Z,989.65
2022-11-18T01:39:05.838Z,989.62
2022-11-18T01:40:05.807Z,989.62
2022-11-18T01:41:05.785Z,989.64
2022-11-18T01:42:05.755Z,989.63
2022-11-18T01:43:05.751Z,989.63
2022-11-18T01:44:05.702Z,989.65
2022-11-18T01:45:05.680Z,989.63
2022-11-18T01:46:05.690Z,989.66
2022-11-18T01:47:05.627Z,989.62
2022-11-18T01:48:05.609Z,989.63
2022-11-18T01:49:05.571Z,989.62
2022-11-18T01:50:05.544Z,989.64
2022-11-18T01:51:05.519Z,989.66
2022-11-18T01:52:05.494Z,989.65
2022-11-18T01:53:05.461Z,989.64
2022-11-18T01:54:05.435Z,989.61
2022-11-18T01:55:05.411Z,989.64
2022-11-18T01:56:05.381Z,989.59
2022-11-18T01:57:05.356Z,989.64
2022-11-18T01:58:05.327Z,989.67
2022-11-18T01:59:05.320Z,989.62
2022-11-18T02:00:05.280Z,989.64
2022-11-18T02:01:05.273Z,989.64
2022-11-18T02:02:05.301Z,989.68
2022-11-18T02:03:05.196Z,989.65
2022-11-18T02:04:05.170Z,989.65
2022-11-18T02:05:05.144Z,989.68
2022-11-18T02:06:05.116Z,989.69
2022-11-18T02:07:05.130Z,989.73
2022-11-18T02:08:05.063Z,989.72
2022-11-18T02:09:05.040Z,989.72
2022-11-18T02:10:05.011Z,989.73
2022-11-18T02:11:04.986Z,989.72
2022-11-18T02:12:05.025Z,989.70
2022-11-18T02:13:04.930Z,989.78
2022-11-18T02:14:04.904Z,989.74
2022-11-18T02:15:04.897Z,989.77
2022-11-18T02:16:04.851Z,989.81
2022-11-18T02:17:04.825Z,989.83
2022-11-18T02:18:04.796Z,989.88
2022-11-18T02:19:04.773Z,989.89
2022-11-18T02:20:04.744Z,989.88
2022-11-18T02:21:04.721Z,989.88
2022-11-18T02:22:04.693Z,989.88
2022-11-18T02:23:04.688Z,989.88
2022-11-18T02:24:04.636Z,989.88
2022-11-18T02:25:04.611Z,989.89
2022-11-18T02:26:04.590Z,989.91
2022-11-18T02:27:04.563Z,989.95
2022-11-18T02:28:04.531Z,989.93
2022-11-18T02:29:04.510Z,989.93
2022-11-18T02:30:04.486Z,989.96
2022-11-18T02:31:04.471Z,989.95
2022-11-18T02:32:04.427Z,989.96
2022-11-18T02:33:04.401Z,989.95
2022-11-18T02:34:04.373Z,989.96
2022-11-18T02:35:04.352Z,989.96
2022-11-18T02:36:04.321Z,989.96
2022-11-18T02:37:04.309Z,989.99
2022-11-18T02:38:04.268Z,989.98
2022-11-18T02:39:04.243Z,989.98
2022-11-18T02:40:04.214Z,990.01
2022-11-18T02:41:04.192Z,990.03
2022-11-18T02:42:04.160Z,990.03
2022-11-18T02:43:04.137Z,990.04
2022-11-18T02:44:04.110Z,990.03
2022-11-18T02:45:04.085Z,990.03
2022-11-18T02:46:04.058Z,990.03
2022-11-18T02:47:04.052Z,990.06
2022-11-18T02:48:04.004Z,990.07
2022-11-18T02:49:03.977Z,990.02
2022-11-18T02:50:03.959Z,990.10
2022-11-18T02:51:03.929Z,990.08
2022-11-18T02:52:03.896Z,990.07
2022-11-18T02:53:03.872Z,990.10
2022-11-18T02:54:03.844Z,990.07
2022-11-18T02:55:03.821Z,990.09
2022-11-18T02:56:03.791Z,990.08
2022-11-18T02:57:03.769Z,990.06
2022-11-18T02:58:03.740Z,990.08
2022-11-18T02:59:03.715Z,990.07
2022-11-18T03:00:03.687Z,990.10
2022-11-18T03:01:03.749Z,990.11
2022-11-18T03:02:03.633Z,990.11
2022-11-18T03:03:03.632Z,990.14
2022-11-18T03:04:03.580Z,990.11
2022-11-18T03:05:03.555Z,990.12
2022-11-18T03:06:03.529Z,990.08
2022-11-18T03:07:03.590Z,990.08
2022-11-18T03:08:03.477Z,990.13
2022-11-18T03:09:03.452Z,990.09
2022-11-18T03:10:03.423Z,990.10
2022-11-18T03:11:03.400Z,990.11
2022-11-18T03:12:03.367Z,990.13
2022-11-18T03:13:03.351Z,990.12
2022-11-18T03:14:03.318Z,990.18
2022-11-18T03:15:03.294Z,990.23
2022-11-18T03:16:03.280Z,990.27
2022-11-18T03:17:03.239Z,990.26
2022-11-18T03:18:03.215Z,990.22
2022-11-18T03:19:03.211Z,990.25
2022-11-18T03:20:03.157Z,990.26
2022-11-18T03:21:03.136Z,990.27
2022-11-18T03:22:03.106Z,990.26
2022-11-18T03:23:03.086Z,990.31
2022-11-18T03:24:03.065Z,990.32
2022-11-18T03:25:03.033Z,990.36
2022-11-18T03:26:03.004Z,990.36
2022-11-18T03:27:02.979Z,990.35
2022-11-18T03:28:02.947Z,990.35
2022-11-18T03:29:02.925Z,990.39
2022-11-18T03:30:02.895Z,990.39
2022-11-18T03:31:02.872Z,990.37
2022-11-18T03:32:02.843Z,990.40
2022-11-18T03:33:02.820Z,990.44
2022-11-18T03:34:02.789Z,990.40
2022-11-18T03:35:02.804Z,990.46
2022-11-18T03:36:02.741Z,990.42
2022-11-18T03:37:07.625Z,990.44
2022-11-18T03:38:02.685Z,990.49
2022-11-18T03:39:02.660Z,990.50
2022-11-18T03:40:02.632Z,990.49
2022-11-18T03:41:02.607Z,990.52
2022-11-18T03:42:02.578Z,990.52
2022-11-18T03:43:02.558Z,990.54
2022-11-18T03:44:02.530Z,990.53
2022-11-18T03:45:02.502Z,990.57
2022-11-18T03:46:02.506Z,990.56
2022-11-18T03:47:02.448Z,990.65
2022-11-18T03:48:02.420Z,990.63
2022-11-18T03:49:02.397Z,990.67
2022-11-18T03:50:02.369Z,990.71
2022-11-18T03:51:02.368Z,990.66
2022-11-18T03:52:02.316Z,990.74
2022-11-18T03:53:02.291Z,990.73
2022-11-18T03:54:02.263Z,990.69
2022-11-18T03:55:02.243Z,990.70
2022-11-18T03:56:02.212Z,990.71
2022-11-18T03:57:02.185Z,990.73
2022-11-18T03:58:02.156Z,990.74
2022-11-18T03:59:02.139Z,990.75
2022-11-18T04:00:02.104Z,990.75
2022-11-18T04:01:02.079Z,990.75
2022-11-18T04:02:02.143Z,990.76
2022-11-18T04:03:02.031Z,990.74
2022-11-18T04:04:02.011Z,990.71
2022-11-18T04:05:01.977Z,990.73
2022-11-18T04:06:01.947Z,990.74
2022-11-18T04:07:02.021Z,990.74
2022-11-18T04:08:01.894Z,990.74
2022-11-18T04:09:01.872Z,990.82
2022-11-18T04:10:01.849Z,990.81
2022-11-18T04:11:01.821Z,990.79
2022-11-18T04:12:01.792Z,990.82
2022-11-18T04:13:05.935Z,990.86
2022-11-18T04:14:01.739Z,990.88
2022-11-18T04:15:01.717Z,990.88
2022-11-18T04:16:01.685Z,990.91
2022-11-18T04:17:01.658Z,990.92
2022-11-18T04:18:01.633Z,990.93
2022-11-18T04:19:06.149Z,990.91
2022-11-18T04:20:01.579Z,990.94
2022-11-18T04:21:01.553Z,990.91
2022-11-18T04:22:01.529Z,990.93
2022-11-18T04:23:01.520Z,990.94
2022-11-18T04:24:01.474Z,990.97
2022-11-18T04:25:01.448Z,990.98
2022-11-18T04:26:01.421Z,990.98
2022-11-18T04:27:01.439Z,991.03
2022-11-18T04:28:01.416Z,991.01
2022-11-18T04:29:01.341Z,991.08
2022-11-18T04:30:01.316Z,991.04
2022-11-18T04:31:01.290Z,991.02
2022-11-18T04:32:01.266Z,991.01
2022-11-18T04:33:01.290Z,991.05
2022-11-18T04:34:01.234Z,991.07
2022-11-18T04:35:01.189Z,991.09
2022-11-18T04:36:01.162Z,991.11
2022-11-18T04:37:01.132Z,991.11
2022-11-18T04:38:01.107Z,991.13
2022-11-18T04:39:01.098Z,991.14
2022-11-18T04:40:01.058Z,991.13
2022-11-18T04:41:01.027Z,991.14
2022-11-18T04:42:01.004Z,991.17
2022-11-18T04:43:00.975Z,991.14
2022-11-18T04:44:00.961Z,991.21
2022-11-18T04:45:00.926Z,991.24
2022-11-18T04:46:00.899Z,991.19
2022-11-18T04:47:00.874Z,991.18
2022-11-18T04:48:03.714Z,991.21
2022-11-18T04:49:00.824Z,991.21
2022-11-18T04:50:00.794Z,991.21
2022-11-18T04:51:00.766Z,991.22
2022-11-18T04:52:00.740Z,991.21
2022-11-18T04:53:00.714Z,991.23
2022-11-18T04:54:00.689Z,991.25
2022-11-18T04:55:00.681Z,991.27
2022-11-18T04:56:00.636Z,991.25
2022-11-18T04:57:00.611Z,991.23
2022-11-18T04:58:00.585Z,991.24
2022-11-18T04:59:00.555Z,991.29
2022-11-18T05:00:00.531Z,991.25
2022-11-18T05:01:00.550Z,991.32
2022-11-18T05:02:00.487Z,991.33
2022-11-18T05:03:00.453Z,991.28
2022-11-18T05:04:00.433Z,991.33
2022-11-18T05:05:00.400Z,991.35
2022-11-18T05:06:00.373Z,991.38
2022-11-18T05:07:00.424Z,991.37
2022-11-18T05:08:00.321Z,991.44
2022-11-18T05:09:00.295Z,991.42
2022-11-18T05:10:00.276Z,991.43
2022-11-18T05:11:00.266Z,991.41
2022-11-18T05:12:00.215Z,991.46
2022-11-18T05:13:00.190Z,991.48
2022-11-18T05:14:00.165Z,991.49
2022-11-18T05:15:00.140Z,991.51
2022-11-18T05:16:00.115Z,991.51
2022-11-18T05:17:00.092Z,991.50
2022-11-18T05:18:00.078Z,991.50
2022-11-18T05:19:00.034Z,991.52
2022-11-18T05:20:00.008Z,991.52
2022-11-18T05:20:59.987Z,991.56
2022-11-18T05:21:59.960Z,991.55
2022-11-18T05:22:59.928Z,991.55
2022-11-18T05:23:59.904Z,991.54
2022-11-18T05:24:59.877Z,991.57
2022-11-18T05:26:02.523Z,991.57
2022-11-18T05:26:59.849Z,991.55
2022-11-18T05:27:59.800Z,991.54
2022-11-18T05:28:59.776Z,991.57
2022-11-18T05:29:59.749Z,991.58
2022-11-18T05:30:59.770Z,991.54
2022-11-18T05:31:59.696Z,991.58
2022-11-18T05:32:59.668Z,991.59
2022-11-18T05:33:59.648Z,991.61
2022-11-18T05:34:59.617Z,991.61
2022-11-18T05:35:59.592Z,991.61
2022-11-18T05:36:59.565Z,991.60
2022-11-18T05:37:59.541Z,991.63
2022-11-18T05:38:59.512Z,991.64
2022-11-18T05:39:59.486Z,991.68
2022-11-18T05:40:59.458Z,991.67
2022-11-18T05:41:59.435Z,991.69
2022-11-18T05:42:59.477Z,991.67
2022-11-18T05:43:59.382Z,991.68
2022-11-18T05:44:59.357Z,991.73
2022-11-18T05:45:59.330Z,991.71
2022-11-18T05:46:59.318Z,991.71
2022-11-18T05:47:59.279Z,991.78
2022-11-18T05:48:59.252Z,991.74
2022-11-18T05:49:59.226Z,991.78
2022-11-18T05:50:59.200Z,991.80
2022-11-18T05:51:59.174Z,991.77
2022-11-18T05:52:59.146Z,991.78
2022-11-18T05:53:59.122Z,991.81
2022-11-18T05:54:59.096Z,991.79
2022-11-18T05:55:59.069Z,991.80
2022-11-18T05:56:59.044Z,991.80
2022-11-18T05:57:59.016Z,991.84
2022-11-18T05:58:59.008Z,991.83
2022-11-18T05:59:58.965Z,991.87
2022-11-18T06:00:58.938Z,991.89
2022-11-18T06:01:58.912Z,991.93
2022-11-18T06:02:58.925Z,991.91
2022-11-18T06:03:58.931Z,991.94
2022-11-18T06:04:58.834Z,991.97
2022-11-18T06:05:58.809Z,991.96
2022-11-18T06:06:58.818Z,991.97
2022-11-18T06:07:58.755Z,992.00
2022-11-18T06:08:58.728Z,991.95
2022-11-18T06:10:03.502Z,992.00
2022-11-18T06:10:58.675Z,992.04
2022-11-18T06:11:58.652Z,992.03
2022-11-18T06:12:58.623Z,992.06
2022-11-18T06:13:58.602Z,992.09
2022-11-18T06:14:58.600Z,992.09
2022-11-18T06:15:58.546Z,992.11
2022-11-18T06:16:58.522Z,992.11
2022-11-18T06:17:58.497Z,992.16
2022-11-18T06:18:58.467Z,992.16
2022-11-18T06:19:58.444Z,992.15
2022-11-18T06:20:58.413Z,992.19
2022-11-18T06:21:58.391Z,992.19
2022-11-18T06:22:58.361Z,992.20
2022-11-18T06:23:58.340Z,992.23
2022-11-18T06:24:58.307Z,992.24
2022-11-18T06:25:58.286Z,992.23
2022-11-18T06:26:58.257Z,992.25
2022-11-18T06:27:58.230Z,992.22
2022-11-18T06:28:58.203Z,992.27
2022-11-18T06:29:58.179Z,992.26
2022-11-18T06:30:58.226Z,992.30
2022-11-18T06:31:58.126Z,992.31
2022-11-18T06:32:58.102Z,992.32
2022-11-18T06:33:58.073Z,992.28
2022-11-18T06:34:58.047Z,992.29
2022-11-18T06:35:58.021Z,992.34
2022-11-18T06:36:57.993Z,992.34
2022-11-18T06:37:57.969Z,992.33
2022-11-18T06:38:57.941Z,992.35
2022-11-18T06:39:57.916Z,992.40
2022-11-18T06:40:57.887Z,992.40
2022-11-18T06:41:57.863Z,992.44
2022-11-18T06:42:57.840Z,992.43
2022-11-18T06:43:57.811Z,992.45
2022-11-18T06:44:57.825Z,992.46
2022-11-18T06:45:57.759Z,992.51
2022-11-18T06:46:57.866Z,992.51
2022-11-18T06:47:57.705Z,992.52
2022-11-18T06:48:57.678Z,992.53
2022-11-18T06:49:57.652Z,992.55
2022-11-18T06:50:57.627Z,992.55
2022-11-18T06:51:57.601Z,992.55
2022-11-18T06:52:57.574Z,992.63
2022-11-18T06:53:57.550Z,992.61
2022-11-18T06:54:57.580Z,992.64
2022-11-18T06:55:57.497Z,992.61
2022-11-18T06:56:57.470Z,992.68
2022-11-18T06:57:57.452Z,992.70
2022-11-18T06:58:57.419Z,992.66
2022-11-18T07:00:01.768Z,992.71
2022-11-18T07:00:57.422Z,992.70
2022-11-18T07:01:57.338Z,992.76
2022-11-18T07:02:57.354Z,992.76
2022-11-18T07:03:57.285Z,992.79
2022-11-18T07:04:57.260Z,992.81
2022-11-18T07:05:57.294Z,992.85
2022-11-18T07:06:57.359Z,992.88
2022-11-18T07:07:57.267Z,992.94
2022-11-18T07:08:57.158Z,992.92
2022-11-18T07:09:57.126Z,992.93
2022-11-18T07:10:57.107Z,992.96
2022-11-18T07:11:57.074Z,993.01
2022-11-18T07:12:57.047Z,992.96
2022-11-18T07:13:57.024Z,992.99
2022-11-18T07:14:56.997Z,993.02
2022-11-18T07:15:56.971Z,993.02
2022-11-18T07:16:56.942Z,993.01
2022-11-18T07:17:56.918Z,992.98
2022-11-18T07:18:56.915Z,993.04
2022-11-18T07:19:56.864Z,993.08
2022-11-18T07:20:56.885Z,993.10
2022-11-18T07:21:56.885Z,993.06
2022-11-18T07:22:56.787Z,993.09
2022-11-18T07:23:56.764Z,993.12
2022-11-18T07:24:56.734Z,993.10
2022-11-18T07:25:56.708Z,993.14
2022-11-18T07:26:56.680Z,993.11
2022-11-18T07:27:56.653Z,993.16
2022-11-18T07:28:56.630Z,993.16
2022-11-18T07:29:56.604Z,993.17
2022-11-18T07:30:56.574Z,993.20
2022-11-18T07:31:56.549Z,993.19
2022-11-18T07:32:56.523Z,993.19
2022-11-18T07:33:56.500Z,993.20
2022-11-18T07:34:56.488Z,993.21
2022-11-18T07:35:56.445Z,993.20
2022-11-18T07:36:56.487Z,993.26
2022-11-18T07:37:56.395Z,993.26
2022-11-18T07:38:56.367Z,993.30
2022-11-18T07:39:56.344Z,993.33
2022-11-18T07:40:56.313Z,993.36
2022-11-18T07:41:56.287Z,993.34
2022-11-18T07:42:56.258Z,993.37
2022-11-18T07:44:00.226Z,993.37
2022-11-18T07:44:56.204Z,993.44
2022-11-18T07:45:56.180Z,993.42
2022-11-18T07:46:56.154Z,993.41
2022-11-18T07:47:56.131Z,993.43
2022-11-18T07:48:56.101Z,993.40
2022-11-18T07:49:56.077Z,993.42
2022-11-18T07:50:56.069Z,993.45
2022-11-18T07:51:56.023Z,993.43
2022-11-18T07:52:55.996Z,993.46
2022-11-18T07:53:55.972Z,993.46
2022-11-18T07:54:55.944Z,993.47
2022-11-18T07:55:55.920Z,993.48
2022-11-18T07:56:55.890Z,993.52
2022-11-18T07:57:55.865Z,993.53
2022-11-18T07:58:55.839Z,993.56
2022-11-18T07:59:55.811Z,993.57
2022-11-18T08:00:55.784Z,993.56
2022-11-18T08:01:55.796Z,993.55
2022-11-18T08:02:55.730Z,993.55
2022-11-18T08:03:55.707Z,993.59
2022-11-18T08:04:55.710Z,993.59
2022-11-18T08:05:55.652Z,993.64
2022-11-18T08:06:55.676Z,993.66
2022-11-18T08:07:55.608Z,993.68
2022-11-18T08:08:55.572Z,993.64
2022-11-18T08:09:55.549Z,993.69
2022-11-18T08:10:55.519Z,993.68
2022-11-18T08:11:55.493Z,993.73
2022-11-18T08:12:55.465Z,993.73
2022-11-18T08:13:55.442Z,993.72
2022-11-18T08:14:55.415Z,993.75
2022-11-18T08:15:55.390Z,993.76
2022-11-18T08:16:55.363Z,993.79
2022-11-18T08:17:55.337Z,993.80
2022-11-18T08:18:55.368Z,993.79
2022-11-18T08:19:55.283Z,993.82
2022-11-18T08:20:55.254Z,993.81
2022-11-18T08:21:55.304Z,993.81
2022-11-18T08:22:55.268Z,993.81
2022-11-18T08:23:55.177Z,993.83
2022-11-18T08:24:55.227Z,993.84
2022-11-18T08:25:55.183Z,993.86
2022-11-18T08:26:55.117Z,993.87
2022-11-18T08:27:55.118Z,993.86
2022-11-18T08:28:55.244Z,993.85
2022-11-18T08:29:55.108Z,993.91
2022-11-18T08:30:55.063Z,993.93
2022-11-18T08:31:54.980Z,993.93
2022-11-18T08:32:54.948Z,993.94
2022-11-18T08:33:54.966Z,993.95
2022-11-18T08:34:54.916Z,993.99
2022-11-18T08:35:54.933Z,993.97
2022-11-18T08:36:54.895Z,993.98
2022-11-18T08:37:54.828Z,993.99
2022-11-18T08:38:54.797Z,993.98
2022-11-18T08:39:54.850Z,994.00
2022-11-18T08:40:54.793Z,993.99
2022-11-18T08:41:54.709Z,994.02
2022-11-18T08:42:54.674Z,993.98
2022-11-18T08:43:54.645Z,994.01
2022-11-18T08:44:54.619Z,994.01
2022-11-18T08:45:54.607Z,994.04
2022-11-18T08:46:54.570Z,994.03
2022-11-18T08:47:54.541Z,994.05
2022-11-18T08:48:54.584Z,994.05
2022-11-18T08:49:54.530Z,994.05
2022-11-18T08:50:54.525Z,994.05
2022-11-18T08:51:54.434Z,994.04
2022-11-18T08:52:54.416Z,994.08
2022-11-18T08:53:54.404Z,994.08
2022-11-18T08:54:54.376Z,994.08
2022-11-18T08:55:57.071Z,994.08
2022-11-18T08:56:54.304Z,994.11
2022-11-18T08:57:54.276Z,994.17
2022-11-18T08:58:54.253Z,994.14
2022-11-18T08:59:54.253Z,994.15
2022-11-18T09:00:54.201Z,994.14
2022-11-18T09:01:54.272Z,994.17
2022-11-18T09:02:54.146Z,994.19
2022-11-18T09:03:54.124Z,994.19
2022-11-18T09:04:54.096Z,994.22
2022-11-18T09:05:54.136Z,994.22
2022-11-18T09:06:54.128Z,994.22
2022-11-18T09:07:54.014Z,994.27
2022-11-18T09:08:53.986Z,994.27
2022-11-18T09:09:53.967Z,994.22
2022-11-18T09:10:54.049Z,994.24
2022-11-18T09:11:53.913Z,994.28
2022-11-18T09:12:54.838Z,994.27
2022-11-18T09:14:53.030Z,994.31
2022-11-18T09:15:13.058Z,994.34
2022-11-18T09:15:53.878Z,994.36
2022-11-18T09:16:53.778Z,994.35
2022-11-18T09:17:53.752Z,994.32
2022-11-18T09:18:53.830Z,994.35
2022-11-18T09:19:53.712Z,994.37
2022-11-18T09:20:53.679Z,994.38
2022-11-18T09:21:53.646Z,994.39
2022-11-18T09:22:53.622Z,994.39
2022-11-18T09:23:53.599Z,994.39
2022-11-18T09:24:53.572Z,994.36
2022-11-18T09:25:53.540Z,994.38
2022-11-18T09:26:53.535Z,994.42
2022-11-18T09:27:53.488Z,994.37
2022-11-18T09:28:53.500Z,994.37
2022-11-18T09:29:53.434Z,994.40
2022-11-18T09:30:53.414Z,994.39
2022-11-18T09:31:53.388Z,994.40
2022-11-18T09:32:53.360Z,994.42
2022-11-18T09:33:53.332Z,994.39
2022-11-18T09:34:53.307Z,994.44
2022-11-18T09:35:53.279Z,994.42
2022-11-18T09:36:53.254Z,994.42
2022-11-18T09:37:53.225Z,994.41
2022-11-18T09:38:53.629Z,994.46
2022-11-18T09:39:53.176Z,994.48
2022-11-18T09:40:53.215Z,994.46
2022-11-18T09:41:53.148Z,994.46
2022-11-18T09:42:53.138Z,994.45
2022-11-18T09:43:53.070Z,994.48
2022-11-18T09:44:53.074Z,994.54
2022-11-18T09:45:53.017Z,994.52
2022-11-18T09:46:52.994Z,994.54
2022-11-18T09:47:53.300Z,994.55
2022-11-18T09:48:52.939Z,994.57
2022-11-18T09:49:52.974Z,994.54
2022-11-18T09:50:52.888Z,994.57
2022-11-18T09:51:52.859Z,994.58
2022-11-18T09:52:52.839Z,994.61
2022-11-18T09:53:52.824Z,994.62
2022-11-18T09:54:52.797Z,994.64
2022-11-18T09:55:52.918Z,994.68
2022-11-18T09:56:52.893Z,994.71
2022-11-18T09:57:52.701Z,994.65
2022-11-18T09:58:52.697Z,994.72
2022-11-18T09:59:52.650Z,994.70
2022-11-18T10:00:52.625Z,994.70
2022-11-18T10:01:52.650Z,994.71
2022-11-18T10:02:52.575Z,994.73
2022-11-18T10:03:52.555Z,994.72
2022-11-18T10:04:52.520Z,994.74
2022-11-18T10:05:52.506Z,994.76
2022-11-18T10:06:52.669Z,994.77
2022-11-18T10:07:52.440Z,994.78
2022-11-18T10:08:52.457Z,994.79
2022-11-18T10:09:52.388Z,994.81
2022-11-18T10:10:52.362Z,994.83
2022-11-18T10:11:52.405Z,994.85
2022-11-18T10:12:52.338Z,994.87
2022-11-18T10:13:52.281Z,994.89
2022-11-18T10:14:52.279Z,994.89
2022-11-18T10:15:52.588Z,994.90
2022-11-18T10:16:57.709Z,994.91
2022-11-18T10:17:52.174Z,994.92
2022-11-18T10:19:00.200Z,994.95
2022-11-18T10:19:52.126Z,994.95
2022-11-18T10:20:52.099Z,994.93
2022-11-18T10:21:52.072Z,994.93
2022-11-18T10:22:52.048Z,994.94
2022-11-18T10:23:52.022Z,994.96
2022-11-18T10:24:51.990Z,995.01
2022-11-18T10:25:51.968Z,994.97
2022-11-18T10:26:51.943Z,995.03
2022-11-18T10:27:51.910Z,995.02
2022-11-18T10:28:51.887Z,995.06
2022-11-18T10:29:51.861Z,995.01
2022-11-18T10:30:51.906Z,995.01
2022-11-18T10:31:51.807Z,995.04
2022-11-18T10:32:51.787Z,995.03
2022-11-18T10:33:51.771Z,995.00
2022-11-18T10:34:51.730Z,995.03
2022-11-18T10:35:51.703Z,995.07
2022-11-18T10:36:51.679Z,995.09
2022-11-18T10:38:07.443Z,995.09
2022-11-18T10:38:51.628Z,995.13
2022-11-18T10:39:51.600Z,995.16
2022-11-18T10:40:51.574Z,995.18
2022-11-18T10:41:51.544Z,995.18
2022-11-18T10:42:51.521Z,995.19
2022-11-18T10:43:51.517Z,995.17
2022-11-18T10:44:51.478Z,995.19
2022-11-18T10:45:51.444Z,995.14
2022-11-18T10:46:51.436Z,995.16
2022-11-18T10:47:51.390Z,995.20
2022-11-18T10:48:51.365Z,995.19
2022-11-18T10:49:51.345Z,995.21
2022-11-18T10:50:55.500Z,995.21
2022-11-18T10:51:51.283Z,995.22
2022-11-18T10:52:51.274Z,995.21
2022-11-18T10:53:51.232Z,995.25
2022-11-18T10:54:51.209Z,995.26
2022-11-18T10:55:51.179Z,995.26
2022-11-18T10:57:51.143Z,995.25
2022-11-18T10:58:51.105Z,995.30
2022-11-18T10:59:51.091Z,995.26
2022-11-18T11:00:51.054Z,995.27
2022-11-18T11:01:48.064Z,995.20
2022-11-18T11:01:51.078Z,995.27
2022-11-18T11:02:51.018Z,995.30
2022-11-18T11:03:50.970Z,995.28
2022-11-18T11:04:50.953Z,995.30
2022-11-18T11:05:50.917Z,995.30
2022-11-18T11:06:50.906Z,995.30
2022-11-18T11:07:52.292Z,995.26
2022-11-18T11:08:50.844Z,995.30
2022-11-18T11:09:50.824Z,995.30
2022-11-18T11:10:52.761Z,995.25
2022-11-18T11:11:50.766Z,995.23
2022-11-18T11:12:50.740Z,995.27
2022-11-18T11:13:50.713Z,995.29
2022-11-18T11:14:50.694Z,995.27
2022-11-18T11:15:50.659Z,995.27
2022-11-18T11:16:50.633Z,995.29
2022-11-18T11:17:50.683Z,995.29
2022-11-18T11:18:50.601Z,995.26
2022-11-18T11:19:50.555Z,995.25
2022-11-18T11:20:50.538Z,995.27
2022-11-18T11:21:50.504Z,995.24
2022-11-18T11:22:50.480Z,995.25
2022-11-18T11:23:50.457Z,995.25
2022-11-18T11:24:50.428Z,995.22
2022-11-18T11:28:50.322Z,995.26
2022-11-18T11:29:50.295Z,995.29
2022-11-18T11:30:50.272Z,995.31
2022-11-18T11:31:50.247Z,995.35
2022-11-18T11:32:50.219Z,995.35
2022-11-18T11:33:50.195Z,995.34
2022-11-18T11:34:50.186Z,995.38
2022-11-18T11:35:50.141Z,995.37
2022-11-18T11:36:50.251Z,995.36
2022-11-18T11:37:50.101Z,995.37
2022-11-18T11:38:50.068Z,995.39
2022-11-18T11:39:50.046Z,995.40
2022-11-18T11:40:50.014Z,995.41
2022-11-18T11:41:49.987Z,995.43
2022-11-18T11:42:49.965Z,995.43
2022-11-18T11:43:49.943Z,995.47
2022-11-18T11:44:49.913Z,995.44
2022-11-18T11:45:49.886Z,995.49
2022-11-18T11:46:49.860Z,995.50
2022-11-18T11:47:49.833Z,995.47
2022-11-18T11:48:49.814Z,995.50
2022-11-18T11:49:49.875Z,995.50
2022-11-18T11:50:56.969Z,995.53
2022-11-18T11:51:49.749Z,995.51
2022-11-18T11:52:49.798Z,995.50
2022-11-18T11:53:49.694Z,995.53
2022-11-18T11:54:49.687Z,995.54
2022-11-18T11:55:49.628Z,995.57
2022-11-18T11:56:49.618Z,995.54
2022-11-18T11:57:49.590Z,995.54
2022-11-18T11:58:49.573Z,995.56
2022-11-18T11:59:49.528Z,995.55
2022-11-18T12:00:49.570Z,995.56
2022-11-18T12:01:49.496Z,995.56
2022-11-18T12:02:49.543Z,995.56
2022-11-18T12:03:52.193Z,995.60
2022-11-18T12:04:49.418Z,995.58
2022-11-18T12:05:49.370Z,995.61
2022-11-18T12:06:49.364Z,995.60
2022-11-18T12:07:49.354Z,995.64
2022-11-18T12:08:49.295Z,995.65
2022-11-18T12:09:49.269Z,995.64
2022-11-18T12:10:49.246Z,995.66
2022-11-18T12:11:49.217Z,995.64
2022-11-18T12:12:49.192Z,995.65
2022-11-18T12:13:49.165Z,995.68
2022-11-18T12:14:49.143Z,995.67
2022-11-18T12:15:49.128Z,995.68
2022-11-18T12:16:49.089Z,995.68
2022-11-18T12:17:49.063Z,995.72
2022-11-18T12:18:49.039Z,995.74
2022-11-18T12:19:49.032Z,995.72
2022-11-18T12:20:48.988Z,995.72
2022-11-18T12:21:48.963Z,995.74
2022-11-18T12:22:48.984Z,995.78
2022-11-18T12:23:48.909Z,995.76
2022-11-18T12:24:48.887Z,995.75
2022-11-18T12:25:48.858Z,995.78
2022-11-18T12:26:48.835Z,995.76
2022-11-18T12:27:48.809Z,995.76
2022-11-18T12:28:48.784Z,995.75
2022-11-18T12:29:48.755Z,995.77
2022-11-18T12:30:48.736Z,995.79
2022-11-18T12:31:48.718Z,995.81